KMCO Airport Information

Runway Information
Runway 17L Length 9000 ft width 150 ft
Elevation 90 ft Threshold 0 ft Heading 180
Runway 35R Length 9000 ft Width 150 ft
Elevation 90 ft Threshold 0 ft Heading 360
Runway 17R Length 10000 ft width 150 ft
Elevation 90 ft Threshold 0 ft Heading 179
Runway 35L Length 10000 ft Width 150 ft
Elevation 87 ft Threshold 0 ft Heading 359
Runway 18L Length 12005 ft width 200 ft
Elevation 93 ft Threshold 0 ft Heading 179
Runway 36R Length 12005 ft Width 200 ft
Elevation 91 ft Threshold 0 ft Heading 359
Runway 18R Length 12004 ft width 200 ft
Elevation 93 ft Threshold 0 ft Heading 179
Runway 36L Length 12004 ft Width 200 ft
Elevation 91 ft Threshold 0 ft Heading 359
Airport Frequencies
Type A/D Name APP/DEP Frequency 119.4 MHZ
Type ATIS Name ATIS Frequency 121.25 MHZ
Type CLD Name CLNC DEL Frequency 134.7 MHZ
Type GND Name GND Frequency 121.8 MHZ
Type OPS Name AR OPS Frequency 41.5 MHZ
Type RDO Name ST PETERSB Frequency 122.1 MHZ
Type RDO Name ST PETERSB Frequency 122.2 MHZ
Type TWR Name TWR Frequency 118.45 MHZ
Type UNIC Name UNICOM Frequency 122.95 MHZ
Airport Navaids
Airport Weather Information & NOTAM
ADDS - METARS form results

(1450 UTC 20 April 2018)
Data provider http://aviationweather.gov/adds/metars/
 
METAR text: KMCO 201353Z VRB06KT 10SM FEW026 FEW250 23/17 A3013 RMK AO2 SLP201 T02330172
Conditions at: KMCO (ORLANDO , FL, US) observed 1353 UTC 20 April 2018
Temperature: 23.3°C (74°F)
Dewpoint: 17.2°C (63°F) [RH = 69%]
Pressure (altimeter): 30.13 inches Hg (1020.4 mb)
[Sea-level pressure: 1020.1 mb]
Winds: variable direction winds at 7 MPH (6 knots; 3.1 m/s)
Visibility: 10 or more miles (16+ km)
Ceiling: at least 12,000 feet AGL
Clouds: few clouds at 2600 feet AGL
few clouds at 25000 feet AGL
Weather: no significant weather observed at this time

Forecast for: KMCO (ORLANDO , FL, US)
Text: KMCO 201343Z 2014/2118 02008KT P6SM FEW025
Forecast period: 1400 to 1500 UTC 20 April 2018
Forecast type: FROM: standard forecast or significant change
Winds: from the NNE (20 degrees) at 9 MPH (8 knots; 4.2 m/s)
Visibility: 6 or more miles (10+ km)
Clouds: few clouds at 2500 feet AGL
Weather: no significant weather forecast for this period
Forecast for: KMCO (ORLANDO , FL, US)
Text: KMCO 201343Z 2014/2118 02008KT P6SM FEW025
Forecast period: 1400 to 1500 UTC 20 April 2018
Forecast type: FROM: standard forecast or significant change
Winds: from the NNE (20 degrees) at 9 MPH (8 knots; 4.2 m/s)
Visibility: 6 or more miles (10+ km)
Clouds: few clouds at 2500 feet AGL
Weather: no significant weather forecast for this period
Forecast for: KMCO (ORLANDO , FL, US)
Text: KMCO 201343Z 2014/2118 02008KT P6SM FEW025
Forecast period: 1500 to 1800 UTC 20 April 2018
Forecast type: FROM: standard forecast or significant change
Winds: from the NNE (30 degrees) at 10 MPH (9 knots; 4.7 m/s)
Visibility: 6 or more miles (10+ km)
Clouds: scattered clouds at 3500 feet AGL
Weather: no significant weather forecast for this period
Forecast for: KMCO (ORLANDO , FL, US)
Text: KMCO 201343Z 2014/2118 02008KT P6SM FEW025
Forecast period: 1500 to 1800 UTC 20 April 2018
Forecast type: FROM: standard forecast or significant change
Winds: from the NNE (30 degrees) at 10 MPH (9 knots; 4.7 m/s)
Visibility: 6 or more miles (10+ km)
Clouds: scattered clouds at 3500 feet AGL
Weather: no significant weather forecast for this period
Forecast for: KMCO (ORLANDO , FL, US)
Text: KMCO 201343Z 2014/2118 02008KT P6SM FEW025
Forecast period: 1800 UTC 20 April 2018 to 0200 UTC 21 April 2018
Forecast type: FROM: standard forecast or significant change
Winds: from the NE (40 degrees) at 16 MPH (14 knots; 7.3 m/s)
gusting to 26 MPH (23 knots; 12.0 m/s)
Visibility: 6 or more miles (10+ km)
Ceiling: 6000 feet AGL
Clouds: scattered clouds at 4000 feet AGL
broken clouds at 6000 feet AGL
Weather: no significant weather forecast for this period
Forecast for: KMCO (ORLANDO , FL, US)
Text: KMCO 201343Z 2014/2118 02008KT P6SM FEW025
Forecast period: 1800 UTC 20 April 2018 to 0200 UTC 21 April 2018
Forecast type: FROM: standard forecast or significant change
Winds: from the NE (40 degrees) at 16 MPH (14 knots; 7.3 m/s)
gusting to 26 MPH (23 knots; 12.0 m/s)
Visibility: 6 or more miles (10+ km)
Ceiling: 6000 feet AGL
Clouds: scattered clouds at 4000 feet AGL
broken clouds at 6000 feet AGL
Weather: no significant weather forecast for this period
Forecast for: KMCO (ORLANDO , FL, US)
Text: KMCO 201343Z 2014/2118 02008KT P6SM FEW025
Forecast period: 0200 to 1800 UTC 21 April 2018
Forecast type: FROM: standard forecast or significant change
Winds: from the NNE (30 degrees) at 14 MPH (12 knots; 6.2 m/s)
Visibility: 6 or more miles (10+ km)
Ceiling: 4000 feet AGL
Clouds: scattered clouds at 1500 feet AGL
broken clouds at 4000 feet AGL
Weather: no significant weather forecast for this period
Forecast for: KMCO (ORLANDO , FL, US)
Text: KMCO 201343Z 2014/2118 02008KT P6SM FEW025
Forecast period: 0200 to 1800 UTC 21 April 2018
Forecast type: FROM: standard forecast or significant change
Winds: from the NNE (30 degrees) at 14 MPH (12 knots; 6.2 m/s)
Visibility: 6 or more miles (10+ km)
Ceiling: 4000 feet AGL
Clouds: scattered clouds at 1500 feet AGL
broken clouds at 4000 feet AGL
Weather: no significant weather forecast for this period